sensor_id;sensor_type;location;lat;lon;timestamp;P1;durP1;ratioP1;P2;durP2;ratioP2
32198;SDS011;19221;42.656;21.156;2023-01-19T11:43:35;15.23;;;8.43;;
32198;SDS011;19221;42.656;21.156;2023-01-19T11:46:01;17.42;;;9.57;;
32198;SDS011;19221;42.656;21.156;2023-01-19T11:48:38;21.30;;;9.85;;
32198;SDS011;19221;42.656;21.156;2023-01-19T11:51:08;21.60;;;10.07;;
32198;SDS011;19221;42.656;21.156;2023-01-19T11:53:38;15.10;;;6.22;;
32198;SDS011;19221;42.656;21.156;2023-01-19T11:56:10;21.13;;;8.13;;
32198;SDS011;19221;42.656;21.156;2023-01-19T11:58:37;19.48;;;10.02;;
32198;SDS011;19221;42.656;21.156;2023-01-19T12:01:10;22.77;;;10.57;;
32198;SDS011;19221;42.656;21.156;2023-01-19T12:08:32;21.83;;;11.25;;
32198;SDS011;19221;42.656;21.156;2023-01-19T12:10:59;12.85;;;6.25;;
32198;SDS011;19221;42.656;21.156;2023-01-19T12:13:26;24.38;;;8.23;;
32198;SDS011;19221;42.656;21.156;2023-01-19T12:15:54;21.90;;;10.75;;
32198;SDS011;19221;42.656;21.156;2023-01-19T12:18:23;21.00;;;8.40;;
32198;SDS011;19221;42.656;21.156;2023-01-19T12:20:51;21.98;;;10.93;;
32198;SDS011;19221;42.656;21.156;2023-01-19T12:28:17;18.73;;;9.32;;
32198;SDS011;19221;42.656;21.156;2023-01-19T12:30:45;28.20;;;13.10;;
32198;SDS011;19221;42.656;21.156;2023-01-19T12:35:57;14.48;;;6.65;;
32198;SDS011;19221;42.656;21.156;2023-01-19T12:43:47;28.15;;;9.05;;
32198;SDS011;19221;42.656;21.156;2023-01-19T12:46:23;20.13;;;9.02;;
32198;SDS011;19221;42.656;21.156;2023-01-19T12:48:51;21.33;;;9.82;;
32198;SDS011;19221;42.656;21.156;2023-01-19T12:51:24;14.98;;;8.52;;
32198;SDS011;19221;42.656;21.156;2023-01-19T12:53:54;28.73;;;8.65;;
32198;SDS011;19221;42.656;21.156;2023-01-19T12:56:30;19.35;;;8.55;;
32198;SDS011;19221;42.656;21.156;2023-01-19T12:58:57;23.58;;;10.35;;
32198;SDS011;19221;42.656;21.156;2023-01-19T13:01:23;18.30;;;8.63;;
32198;SDS011;19221;42.656;21.156;2023-01-19T13:14:36;19.77;;;7.72;;
32198;SDS011;19221;42.656;21.156;2023-01-19T13:17:03;15.27;;;6.30;;
32198;SDS011;19221;42.656;21.156;2023-01-19T13:19:31;16.60;;;6.78;;
32198;SDS011;19221;42.656;21.156;2023-01-19T13:21:59;18.52;;;7.22;;
32198;SDS011;19221;42.656;21.156;2023-01-19T13:25:03;15.57;;;5.68;;
32198;SDS011;19221;42.656;21.156;2023-01-19T13:27:29;16.98;;;7.35;;
32198;SDS011;19221;42.656;21.156;2023-01-19T13:29:55;15.60;;;7.97;;
32198;SDS011;19221;42.656;21.156;2023-01-19T13:32:21;18.85;;;6.93;;
32198;SDS011;19221;42.656;21.156;2023-01-19T13:34:53;16.35;;;7.82;;
32198;SDS011;19221;42.656;21.156;2023-01-19T13:37:23;17.10;;;7.32;;
32198;SDS011;19221;42.656;21.156;2023-01-19T13:39:51;20.95;;;9.93;;
32198;SDS011;19221;42.656;21.156;2023-01-19T13:42:22;17.20;;;6.70;;
32198;SDS011;19221;42.656;21.156;2023-01-19T13:44:51;18.58;;;5.95;;
32198;SDS011;19221;42.656;21.156;2023-01-19T13:47:19;19.45;;;7.07;;
32198;SDS011;19221;42.656;21.156;2023-01-19T13:49:46;14.88;;;7.53;;
32198;SDS011;19221;42.656;21.156;2023-01-19T13:52:17;23.48;;;10.23;;
32198;SDS011;19221;42.656;21.156;2023-01-19T13:55:00;23.95;;;11.02;;
32198;SDS011;19221;42.656;21.156;2023-01-19T14:00:02;23.80;;;9.43;;
32198;SDS011;19221;42.656;21.156;2023-01-19T14:02:28;22.58;;;9.57;;
32198;SDS011;19221;42.656;21.156;2023-01-19T14:04:54;22.77;;;9.57;;
32198;SDS011;19221;42.656;21.156;2023-01-19T14:07:21;28.55;;;11.15;;
32198;SDS011;19221;42.656;21.156;2023-01-19T14:10:06;30.50;;;11.23;;
32198;SDS011;19221;42.656;21.156;2023-01-19T14:12:36;36.22;;;11.85;;
32198;SDS011;19221;42.656;21.156;2023-01-19T14:15:02;22.80;;;8.90;;
32198;SDS011;19221;42.656;21.156;2023-01-19T14:17:29;30.73;;;13.35;;
32198;SDS011;19221;42.656;21.156;2023-01-19T14:19:57;33.53;;;10.32;;
32198;SDS011;19221;42.656;21.156;2023-01-19T14:22:45;26.58;;;11.68;;
32198;SDS011;19221;42.656;21.156;2023-01-19T14:25:21;31.10;;;11.10;;
32198;SDS011;19221;42.656;21.156;2023-01-19T14:27:46;27.23;;;10.52;;
32198;SDS011;19221;42.656;21.156;2023-01-19T14:30:21;29.00;;;11.88;;
32198;SDS011;19221;42.656;21.156;2023-01-19T14:32:49;49.53;;;24.33;;
32198;SDS011;19221;42.656;21.156;2023-01-19T14:35:22;39.95;;;16.13;;
32198;SDS011;19221;42.656;21.156;2023-01-19T14:37:48;62.05;;;31.10;;
32198;SDS011;19221;42.656;21.156;2023-01-19T14:40:16;55.15;;;30.77;;
32198;SDS011;19221;42.656;21.156;2023-01-19T14:45:21;50.08;;;29.45;;
32198;SDS011;19221;42.656;21.156;2023-01-19T14:47:55;59.08;;;30.00;;
32198;SDS011;19221;42.656;21.156;2023-01-19T14:50:22;45.88;;;21.48;;
32198;SDS011;19221;42.656;21.156;2023-01-19T14:52:53;42.72;;;18.45;;
32198;SDS011;19221;42.656;21.156;2023-01-19T14:55:22;41.15;;;22.13;;
32198;SDS011;19221;42.656;21.156;2023-01-19T14:57:49;41.78;;;23.13;;
32198;SDS011;19221;42.656;21.156;2023-01-19T15:00:16;52.72;;;27.05;;
32198;SDS011;19221;42.656;21.156;2023-01-19T15:02:42;71.03;;;38.92;;
32198;SDS011;19221;42.656;21.156;2023-01-19T15:05:11;69.72;;;38.03;;
32198;SDS011;19221;42.656;21.156;2023-01-19T15:07:37;65.47;;;37.55;;
32198;SDS011;19221;42.656;21.156;2023-01-19T15:10:04;72.95;;;39.92;;
32198;SDS011;19221;42.656;21.156;2023-01-19T15:12:34;67.00;;;39.45;;
32198;SDS011;19221;42.656;21.156;2023-01-19T15:14:59;62.58;;;35.63;;
32198;SDS011;19221;42.656;21.156;2023-01-19T15:17:25;57.92;;;31.30;;
32198;SDS011;19221;42.656;21.156;2023-01-19T15:19:54;69.85;;;36.78;;
32198;SDS011;19221;42.656;21.156;2023-01-19T15:22:20;58.92;;;34.67;;
32198;SDS011;19221;42.656;21.156;2023-01-19T15:24:49;65.60;;;35.53;;
32198;SDS011;19221;42.656;21.156;2023-01-19T15:27:15;61.53;;;34.17;;
32198;SDS011;19221;42.656;21.156;2023-01-19T15:29:41;97.90;;;54.22;;
32198;SDS011;19221;42.656;21.156;2023-01-19T15:32:13;87.78;;;52.28;;
32198;SDS011;19221;42.656;21.156;2023-01-19T15:34:39;100.88;;;58.70;;
32198;SDS011;19221;42.656;21.156;2023-01-19T15:37:05;68.40;;;42.50;;
32198;SDS011;19221;42.656;21.156;2023-01-19T15:39:30;68.30;;;40.15;;
32198;SDS011;19221;42.656;21.156;2023-01-19T15:41:56;104.43;;;60.10;;
32198;SDS011;19221;42.656;21.156;2023-01-19T15:44:22;122.45;;;72.07;;
32198;SDS011;19221;42.656;21.156;2023-01-19T15:46:48;120.45;;;71.43;;
32198;SDS011;19221;42.656;21.156;2023-01-19T15:49:14;144.80;;;86.00;;
32198;SDS011;19221;42.656;21.156;2023-01-19T15:51:39;126.10;;;71.95;;
32198;SDS011;19221;42.656;21.156;2023-01-19T15:54:07;110.45;;;62.50;;
32198;SDS011;19221;42.656;21.156;2023-01-19T15:56:35;92.85;;;53.00;;
32198;SDS011;19221;42.656;21.156;2023-01-19T15:59:00;91.07;;;55.95;;
32198;SDS011;19221;42.656;21.156;2023-01-19T16:01:27;104.95;;;58.55;;
32198;SDS011;19221;42.656;21.156;2023-01-19T16:03:58;93.60;;;55.28;;
32198;SDS011;19221;42.656;21.156;2023-01-19T16:06:25;82.18;;;48.45;;
32198;SDS011;19221;42.656;21.156;2023-01-19T16:08:51;78.95;;;45.33;;
32198;SDS011;19221;42.656;21.156;2023-01-19T16:11:16;72.45;;;43.70;;
32198;SDS011;19221;42.656;21.156;2023-01-19T16:13:43;60.20;;;36.97;;
32198;SDS011;19221;42.656;21.156;2023-01-19T16:16:14;77.57;;;44.30;;
32198;SDS011;19221;42.656;21.156;2023-01-19T16:18:40;69.95;;;42.75;;
32198;SDS011;19221;42.656;21.156;2023-01-19T16:21:06;62.22;;;38.20;;
32198;SDS011;19221;42.656;21.156;2023-01-19T16:23:31;59.90;;;36.33;;
32198;SDS011;19221;42.656;21.156;2023-01-19T16:25:58;54.17;;;29.80;;
32198;SDS011;19221;42.656;21.156;2023-01-19T16:28:25;49.63;;;27.63;;
32198;SDS011;19221;42.656;21.156;2023-01-19T16:30:51;42.50;;;24.73;;
32198;SDS011;19221;42.656;21.156;2023-01-19T16:33:17;37.13;;;19.70;;
32198;SDS011;19221;42.656;21.156;2023-01-19T16:35:43;37.97;;;19.77;;
32198;SDS011;19221;42.656;21.156;2023-01-19T16:38:08;37.13;;;17.17;;
32198;SDS011;19221;42.656;21.156;2023-01-19T16:40:34;28.83;;;15.63;;
32198;SDS011;19221;42.656;21.156;2023-01-19T16:43:02;48.20;;;26.70;;
32198;SDS011;19221;42.656;21.156;2023-01-19T16:45:28;51.65;;;28.95;;
32198;SDS011;19221;42.656;21.156;2023-01-19T16:47:54;75.05;;;40.15;;
32198;SDS011;19221;42.656;21.156;2023-01-19T16:50:19;72.70;;;42.17;;
32198;SDS011;19221;42.656;21.156;2023-01-19T16:52:45;93.78;;;51.55;;
32198;SDS011;19221;42.656;21.156;2023-01-19T16:55:11;107.25;;;60.22;;
32198;SDS011;19221;42.656;21.156;2023-01-19T16:57:36;121.32;;;70.57;;
32198;SDS011;19221;42.656;21.156;2023-01-19T17:00:06;129.30;;;76.30;;
32198;SDS011;19221;42.656;21.156;2023-01-19T17:02:32;133.32;;;80.35;;
32198;SDS011;19221;42.656;21.156;2023-01-19T17:04:57;104.82;;;61.97;;
32198;SDS011;19221;42.656;21.156;2023-01-19T17:07:26;93.65;;;57.45;;
32198;SDS011;19221;42.656;21.156;2023-01-19T17:09:52;113.30;;;70.55;;
32198;SDS011;19221;42.656;21.156;2023-01-19T17:12:18;122.38;;;69.45;;
32198;SDS011;19221;42.656;21.156;2023-01-19T17:14:44;110.88;;;66.47;;
32198;SDS011;19221;42.656;21.156;2023-01-19T17:17:12;96.55;;;58.72;;
32198;SDS011;19221;42.656;21.156;2023-01-19T17:19:37;93.72;;;56.50;;
32198;SDS011;19221;42.656;21.156;2023-01-19T17:22:04;95.63;;;59.55;;
32198;SDS011;19221;42.656;21.156;2023-01-19T17:24:30;99.10;;;58.03;;
32198;SDS011;19221;42.656;21.156;2023-01-19T17:26:56;87.53;;;52.53;;
32198;SDS011;19221;42.656;21.156;2023-01-19T17:29:22;68.55;;;41.75;;
32198;SDS011;19221;42.656;21.156;2023-01-19T17:31:48;70.20;;;44.08;;
32198;SDS011;19221;42.656;21.156;2023-01-19T17:34:14;72.95;;;42.42;;
32198;SDS011;19221;42.656;21.156;2023-01-19T17:36:40;78.80;;;45.33;;
32198;SDS011;19221;42.656;21.156;2023-01-19T17:39:07;73.75;;;42.33;;
32198;SDS011;19221;42.656;21.156;2023-01-19T17:41:33;76.10;;;44.38;;
32198;SDS011;19221;42.656;21.156;2023-01-19T17:43:59;72.13;;;45.70;;
32198;SDS011;19221;42.656;21.156;2023-01-19T17:46:25;78.22;;;47.78;;
32198;SDS011;19221;42.656;21.156;2023-01-19T17:48:56;66.88;;;41.33;;
32198;SDS011;19221;42.656;21.156;2023-01-19T17:51:22;58.30;;;35.20;;
32198;SDS011;19221;42.656;21.156;2023-01-19T17:53:48;63.83;;;39.22;;
32198;SDS011;19221;42.656;21.156;2023-01-19T17:56:15;97.78;;;58.38;;
32198;SDS011;19221;42.656;21.156;2023-01-19T17:58:41;82.50;;;49.78;;
32198;SDS011;19221;42.656;21.156;2023-01-19T18:01:10;67.88;;;40.88;;
32198;SDS011;19221;42.656;21.156;2023-01-19T18:03:36;78.88;;;46.25;;
32198;SDS011;19221;42.656;21.156;2023-01-19T18:06:02;86.80;;;52.22;;
32198;SDS011;19221;42.656;21.156;2023-01-19T18:08:28;82.45;;;52.92;;
32198;SDS011;19221;42.656;21.156;2023-01-19T18:10:54;90.28;;;53.78;;
32198;SDS011;19221;42.656;21.156;2023-01-19T18:13:20;87.88;;;49.90;;
32198;SDS011;19221;42.656;21.156;2023-01-19T18:15:46;68.00;;;42.03;;
32198;SDS011;19221;42.656;21.156;2023-01-19T18:18:11;69.20;;;43.63;;
32198;SDS011;19221;42.656;21.156;2023-01-19T18:20:37;63.40;;;37.63;;
32198;SDS011;19221;42.656;21.156;2023-01-19T18:23:04;59.15;;;38.08;;
32198;SDS011;19221;42.656;21.156;2023-01-19T18:25:30;56.95;;;34.53;;
32198;SDS011;19221;42.656;21.156;2023-01-19T18:27:56;62.58;;;36.30;;
32198;SDS011;19221;42.656;21.156;2023-01-19T18:30:22;62.05;;;35.58;;
32198;SDS011;19221;42.656;21.156;2023-01-19T18:32:48;55.65;;;33.20;;
32198;SDS011;19221;42.656;21.156;2023-01-19T18:35:16;65.93;;;37.90;;
32198;SDS011;19221;42.656;21.156;2023-01-19T18:37:42;65.53;;;41.25;;
32198;SDS011;19221;42.656;21.156;2023-01-19T18:40:08;66.32;;;40.33;;
32198;SDS011;19221;42.656;21.156;2023-01-19T18:42:34;70.18;;;43.17;;
32198;SDS011;19221;42.656;21.156;2023-01-19T18:44:59;67.47;;;41.15;;
32198;SDS011;19221;42.656;21.156;2023-01-19T18:47:25;70.85;;;44.03;;
32198;SDS011;19221;42.656;21.156;2023-01-19T18:49:51;69.63;;;40.22;;
32198;SDS011;19221;42.656;21.156;2023-01-19T18:52:17;78.40;;;44.80;;
32198;SDS011;19221;42.656;21.156;2023-01-19T18:54:43;70.68;;;41.83;;
32198;SDS011;19221;42.656;21.156;2023-01-19T18:57:08;78.68;;;45.25;;
32198;SDS011;19221;42.656;21.156;2023-01-19T18:59:34;84.25;;;50.63;;
32198;SDS011;19221;42.656;21.156;2023-01-19T19:02:00;103.25;;;61.33;;
32198;SDS011;19221;42.656;21.156;2023-01-19T19:04:26;114.30;;;66.95;;
32198;SDS011;19221;42.656;21.156;2023-01-19T19:06:51;119.90;;;68.45;;
32198;SDS011;19221;42.656;21.156;2023-01-19T19:09:17;118.05;;;67.55;;
32198;SDS011;19221;42.656;21.156;2023-01-19T19:11:43;120.95;;;68.07;;
32198;SDS011;19221;42.656;21.156;2023-01-19T19:14:09;113.75;;;67.72;;
32198;SDS011;19221;42.656;21.156;2023-01-19T19:16:34;120.30;;;72.72;;
32198;SDS011;19221;42.656;21.156;2023-01-19T19:19:00;135.55;;;74.00;;
32198;SDS011;19221;42.656;21.156;2023-01-19T19:21:26;126.43;;;74.97;;
32198;SDS011;19221;42.656;21.156;2023-01-19T19:23:52;129.63;;;77.10;;
32198;SDS011;19221;42.656;21.156;2023-01-19T19:26:18;124.55;;;71.75;;
32198;SDS011;19221;42.656;21.156;2023-01-19T19:28:44;114.72;;;61.97;;
32198;SDS011;19221;42.656;21.156;2023-01-19T19:31:12;101.13;;;57.88;;
32198;SDS011;19221;42.656;21.156;2023-01-19T19:33:39;100.97;;;58.22;;
32198;SDS011;19221;42.656;21.156;2023-01-19T19:36:05;101.80;;;58.90;;
32198;SDS011;19221;42.656;21.156;2023-01-19T19:38:31;85.45;;;51.85;;
32198;SDS011;19221;42.656;21.156;2023-01-19T19:40:57;76.28;;;42.88;;
32198;SDS011;19221;42.656;21.156;2023-01-19T19:43:25;58.63;;;35.75;;
32198;SDS011;19221;42.656;21.156;2023-01-19T19:45:55;57.67;;;31.15;;
32198;SDS011;19221;42.656;21.156;2023-01-19T19:48:20;57.90;;;31.90;;
32198;SDS011;19221;42.656;21.156;2023-01-19T19:50:46;57.17;;;33.38;;
32198;SDS011;19221;42.656;21.156;2023-01-19T19:53:11;52.55;;;31.90;;
32198;SDS011;19221;42.656;21.156;2023-01-19T19:55:37;49.25;;;26.88;;
32198;SDS011;19221;42.656;21.156;2023-01-19T19:58:03;51.20;;;28.10;;
32198;SDS011;19221;42.656;21.156;2023-01-19T20:00:29;47.17;;;25.65;;
32198;SDS011;19221;42.656;21.156;2023-01-19T20:02:55;42.20;;;26.52;;
32198;SDS011;19221;42.656;21.156;2023-01-19T20:05:20;46.35;;;28.77;;
32198;SDS011;19221;42.656;21.156;2023-01-19T20:07:46;45.80;;;29.58;;
32198;SDS011;19221;42.656;21.156;2023-01-19T20:10:12;46.70;;;27.58;;
32198;SDS011;19221;42.656;21.156;2023-01-19T20:12:38;50.35;;;28.38;;
32198;SDS011;19221;42.656;21.156;2023-01-19T20:15:04;49.47;;;28.48;;
32198;SDS011;19221;42.656;21.156;2023-01-19T20:17:29;50.97;;;30.35;;
32198;SDS011;19221;42.656;21.156;2023-01-19T20:19:55;66.25;;;35.75;;
32198;SDS011;19221;42.656;21.156;2023-01-19T20:22:23;65.50;;;38.13;;
32198;SDS011;19221;42.656;21.156;2023-01-19T20:24:48;75.47;;;46.42;;
32198;SDS011;19221;42.656;21.156;2023-01-19T20:27:16;87.70;;;47.90;;
32198;SDS011;19221;42.656;21.156;2023-01-19T20:29:41;82.32;;;46.75;;
32198;SDS011;19221;42.656;21.156;2023-01-19T20:32:07;67.03;;;37.50;;
32198;SDS011;19221;42.656;21.156;2023-01-19T20:34:35;84.45;;;47.05;;
32198;SDS011;19221;42.656;21.156;2023-01-19T20:37:01;74.85;;;42.00;;
32198;SDS011;19221;42.656;21.156;2023-01-19T20:39:27;80.20;;;43.47;;
32198;SDS011;19221;42.656;21.156;2023-01-19T20:41:58;58.33;;;32.05;;
32198;SDS011;19221;42.656;21.156;2023-01-19T20:44:24;44.33;;;25.10;;
32198;SDS011;19221;42.656;21.156;2023-01-19T20:46:50;94.80;;;54.97;;
32198;SDS011;19221;42.656;21.156;2023-01-19T20:49:16;78.35;;;46.95;;
32198;SDS011;19221;42.656;21.156;2023-01-19T20:51:42;84.60;;;49.03;;
32198;SDS011;19221;42.656;21.156;2023-01-19T20:54:09;83.93;;;49.25;;
32198;SDS011;19221;42.656;21.156;2023-01-19T20:56:35;83.75;;;49.80;;
32198;SDS011;19221;42.656;21.156;2023-01-19T20:59:01;88.60;;;50.85;;
32198;SDS011;19221;42.656;21.156;2023-01-19T21:01:27;88.13;;;51.88;;
32198;SDS011;19221;42.656;21.156;2023-01-19T21:03:52;89.70;;;52.33;;
32198;SDS011;19221;42.656;21.156;2023-01-19T21:06:19;86.45;;;52.97;;
32198;SDS011;19221;42.656;21.156;2023-01-19T21:08:45;88.75;;;53.10;;
32198;SDS011;19221;42.656;21.156;2023-01-19T21:11:14;97.43;;;58.92;;
32198;SDS011;19221;42.656;21.156;2023-01-19T21:13:40;90.20;;;52.72;;
32198;SDS011;19221;42.656;21.156;2023-01-19T21:16:06;79.93;;;48.13;;
32198;SDS011;19221;42.656;21.156;2023-01-19T21:18:33;82.10;;;48.22;;
32198;SDS011;19221;42.656;21.156;2023-01-19T21:20:59;101.70;;;60.88;;
32198;SDS011;19221;42.656;21.156;2023-01-19T21:23:26;105.57;;;64.55;;
32198;SDS011;19221;42.656;21.156;2023-01-19T21:25:56;120.85;;;72.97;;
32198;SDS011;19221;42.656;21.156;2023-01-19T21:28:22;107.47;;;63.58;;
32198;SDS011;19221;42.656;21.156;2023-01-19T21:30:48;92.72;;;53.78;;
32198;SDS011;19221;42.656;21.156;2023-01-19T21:33:14;77.90;;;43.47;;
32198;SDS011;19221;42.656;21.156;2023-01-19T21:35:48;80.30;;;46.92;;
32198;SDS011;19221;42.656;21.156;2023-01-19T21:38:14;66.50;;;41.65;;
32198;SDS011;19221;42.656;21.156;2023-01-19T21:40:39;73.18;;;42.28;;
32198;SDS011;19221;42.656;21.156;2023-01-19T21:43:05;74.20;;;42.35;;
32198;SDS011;19221;42.656;21.156;2023-01-19T21:45:31;63.95;;;40.47;;
32198;SDS011;19221;42.656;21.156;2023-01-19T21:47:56;78.20;;;44.63;;
32198;SDS011;19221;42.656;21.156;2023-01-19T21:50:22;79.03;;;45.22;;
32198;SDS011;19221;42.656;21.156;2023-01-19T21:52:48;74.78;;;44.78;;
32198;SDS011;19221;42.656;21.156;2023-01-19T21:55:13;79.30;;;46.30;;
32198;SDS011;19221;42.656;21.156;2023-01-19T21:57:39;55.17;;;32.45;;
32198;SDS011;19221;42.656;21.156;2023-01-19T22:00:05;44.28;;;22.88;;
32198;SDS011;19221;42.656;21.156;2023-01-19T22:02:31;43.28;;;25.15;;
32198;SDS011;19221;42.656;21.156;2023-01-19T22:04:56;48.70;;;25.70;;
32198;SDS011;19221;42.656;21.156;2023-01-19T22:07:22;42.95;;;25.80;;
32198;SDS011;19221;42.656;21.156;2023-01-19T22:09:48;47.25;;;25.88;;
32198;SDS011;19221;42.656;21.156;2023-01-19T22:12:13;41.78;;;26.25;;
32198;SDS011;19221;42.656;21.156;2023-01-19T22:14:39;54.13;;;30.17;;
32198;SDS011;19221;42.656;21.156;2023-01-19T22:17:05;57.97;;;32.85;;
32198;SDS011;19221;42.656;21.156;2023-01-19T22:19:32;55.08;;;31.80;;
32198;SDS011;19221;42.656;21.156;2023-01-19T22:21:57;61.75;;;32.92;;
32198;SDS011;19221;42.656;21.156;2023-01-19T22:24:24;62.10;;;37.72;;
32198;SDS011;19221;42.656;21.156;2023-01-19T22:26:49;62.85;;;39.00;;
32198;SDS011;19221;42.656;21.156;2023-01-19T22:29:15;60.30;;;34.00;;
32198;SDS011;19221;42.656;21.156;2023-01-19T22:31:41;49.47;;;27.77;;
32198;SDS011;19221;42.656;21.156;2023-01-19T22:34:07;48.10;;;25.63;;
32198;SDS011;19221;42.656;21.156;2023-01-19T22:36:35;39.28;;;20.60;;
32198;SDS011;19221;42.656;21.156;2023-01-19T22:39:02;36.60;;;17.48;;
32198;SDS011;19221;42.656;21.156;2023-01-19T22:46:46;27.63;;;12.60;;
32198;SDS011;19221;42.656;21.156;2023-01-19T22:49:13;18.63;;;8.02;;
32198;SDS011;19221;42.656;21.156;2023-01-19T22:51:39;12.77;;;5.60;;
32198;SDS011;19221;42.656;21.156;2023-01-19T22:54:05;19.52;;;10.88;;
32198;SDS011;19221;42.656;21.156;2023-01-19T22:56:34;38.88;;;23.90;;
32198;SDS011;19221;42.656;21.156;2023-01-19T22:59:00;43.20;;;27.38;;
32198;SDS011;19221;42.656;21.156;2023-01-19T23:01:29;42.25;;;27.45;;
32198;SDS011;19221;42.656;21.156;2023-01-19T23:06:26;41.80;;;25.33;;
32198;SDS011;19221;42.656;21.156;2023-01-19T23:08:55;35.58;;;21.95;;
32198;SDS011;19221;42.656;21.156;2023-01-19T23:11:25;32.30;;;20.25;;
32198;SDS011;19221;42.656;21.156;2023-01-19T23:13:50;31.63;;;19.67;;
32198;SDS011;19221;42.656;21.156;2023-01-19T23:16:16;38.63;;;19.98;;
32198;SDS011;19221;42.656;21.156;2023-01-19T23:18:42;35.20;;;20.95;;
32198;SDS011;19221;42.656;21.156;2023-01-19T23:21:13;33.78;;;20.88;;
32198;SDS011;19221;42.656;21.156;2023-01-19T23:23:39;27.08;;;17.40;;
32198;SDS011;19221;42.656;21.156;2023-01-19T23:26:06;23.13;;;13.50;;
32198;SDS011;19221;42.656;21.156;2023-01-19T23:28:32;23.30;;;13.23;;
32198;SDS011;19221;42.656;21.156;2023-01-19T23:31:37;19.08;;;13.07;;
32198;SDS011;19221;42.656;21.156;2023-01-19T23:33:56;26.70;;;16.48;;
32198;SDS011;19221;42.656;21.156;2023-01-19T23:36:25;22.60;;;13.93;;
32198;SDS011;19221;42.656;21.156;2023-01-19T23:38:51;20.45;;;13.43;;
32198;SDS011;19221;42.656;21.156;2023-01-19T23:41:18;21.15;;;11.48;;
32198;SDS011;19221;42.656;21.156;2023-01-19T23:43:44;21.48;;;11.95;;
32198;SDS011;19221;42.656;21.156;2023-01-19T23:46:09;22.98;;;13.75;;
32198;SDS011;19221;42.656;21.156;2023-01-19T23:48:36;26.38;;;14.35;;
32198;SDS011;19221;42.656;21.156;2023-01-19T23:51:12;22.50;;;12.75;;
32198;SDS011;19221;42.656;21.156;2023-01-19T23:53:38;24.65;;;16.10;;
32198;SDS011;19221;42.656;21.156;2023-01-19T23:56:11;23.15;;;11.65;;
32198;SDS011;19221;42.656;21.156;2023-01-19T23:58:37;22.35;;;11.85;;
